Portada
METAR-TAF:

METAR-TAF

Aeroports :

Kastamonu, Turquia

latitud: 41-19-01N, longitud: 33-47-46E, altitud: 1073 m

Observació

L'informe es va fer fa 13 hores i 34 minuts, a les 12:50 UTC
Vent 2 kt del Nord-Oest
Temperatura 10°C
Humitat 20%
Pressió 1017 hPa
Visibilitat 10 km o més
sense núvols per sota de 1500 mi sense presència de cumulonimbus.

METAR: LTAL 181250Z 32002KT CAVOK 10/M12 Q1017

Hora: 05:24 (02:24 UTC)

Pronòstic

L'informe es va fer fa 12 hores i 44 minuts, a les 13:40 UTC
Pronòstic vàlid del 18 a les 15 UTC al 18 a les 24 UTC
Vent 2 kt amb direcció variable
Visibilitat 10 km o més
sense núvols per sota de 1500 mi sense presència de cumulonimbus.

TAF: LTAL 181340Z 1815/1824 VRB02KT CAVOK

Observacions i pronòstics meteorològics de més de 4000 aeroports (METAR i TAF).

Les estacions disponibles són els punts grocs i vermells al mapa.

Posi el ratolí al punt desitjat per veure el nom de l'estació.

Feu clic per veure les observacions i els pronòstics meteorològics.

Per canviar el mapa: feu clic els botons verds amb una creu de color negre per apropar; al botó verd amb un guió per allunyar la imatge; o en les fletxes verdes per a mapes adjacents.


METAR-TAF: